Time,TemperatureF,DewpointF,PressureIn,WindDirection,WindDirectionDegrees,WindSpeedMPH,WindSpeedGustMPH,Humidity,HourlyPrecipIn,Conditions,Clouds,dailyrainin,SoftwareType,DateUTC
2013-09-17 01:13:00,45.5,40.4,30.35,NNW,337,0.0,0.0,82,0.00,,,-99.99,open2300 version1.11,2013-09-17 05:13:00,
2013-09-17 03:13:00,43.7,39.5,30.36,NNW,336,0.0,0.0,85,0.00,,,-99.99,open2300 version1.11,2013-09-17 07:13:00,
2013-09-17 03:53:00,42.8,38.6,30.36,NNW,337,0.0,0.0,85,0.00,,,-99.99,open2300 version1.11,2013-09-17 07:53:00,
2013-09-17 05:38:00,41.9,38.0,30.36,NNW,337,0.0,0.0,86,0.00,,,-99.99,open2300 version1.11,2013-09-17 09:38:00,
2013-09-17 07:08:00,40.8,37.2,30.36,NNW,337,0.0,0.0,87,0.00,,,-99.99,open2300 version1.11,2013-09-17 11:08:00,
2013-09-17 07:48:00,41.2,37.6,30.37,NNW,337,0.0,0.0,87,0.00,,,-99.99,open2300 version1.11,2013-09-17 11:48:00,
2013-09-17 08:13:00,42.6,39.3,30.37,NNW,337,0.0,0.0,88,0.00,,,-99.99,open2300 version1.11,2013-09-17 12:13:00,
2013-09-17 08:38:00,44.8,41.8,30.37,NNW,337,0.0,0.0,89,0.00,,,-99.99,open2300 version1.11,2013-09-17 12:38:00,
2013-09-17 09:25:00,48.0,44.7,30.37,NW,320,0.0,0.0,88,0.00,,,-99.99,open2300 version1.11,2013-09-17 13:25:00,
2013-09-17 09:43:00,49.3,45.8,30.37,North,351,0.0,0.0,88,0.00,,,-99.99,open2300 version1.11,2013-09-17 13:43:00,
2013-09-17 11:37:00,57.7,52.3,30.36,North,358,0.0,0.0,82,0.00,,,-99.99,open2300 version1.11,2013-09-17 15:37:00,
2013-09-17 12:06:00,59.0,52.5,30.36,North,0,0.0,0.0,79,0.00,,,-99.99,open2300 version1.11,2013-09-17 16:06:00,
2013-09-17 12:35:00,60.4,52.9,30.35,North,0,0.0,0.0,76,0.00,,,-99.99,open2300 version1.11,2013-09-17 16:35:00,
2013-09-17 13:00:00,61.0,52.3,30.35,North,0,0.0,0.0,73,0.00,,,-99.99,open2300 version1.11,2013-09-17 17:00:00,
2013-09-17 15:13:00,66.0,52.6,30.29,North,0,0.0,0.0,62,0.00,,,-99.99,open2300 version1.11,2013-09-17 19:13:00,
2013-09-17 15:53:00,66.0,51.8,30.27,North,0,0.0,0.0,60,0.00,,,-99.99,open2300 version1.11,2013-09-17 19:53:00,
2013-09-17 17:31:00,64.0,48.4,30.24,NNW,336,0.0,0.0,57,0.00,,,-99.99,open2300 version1.11,2013-09-17 21:31:00,
2013-09-17 17:55:00,63.5,47.9,30.24,NE,45,0.0,0.0,57,0.00,,,-99.99,open2300 version1.11,2013-09-17 21:55:00,
2013-09-17 18:10:00,63.0,48.4,30.24,NNW,345,0.0,0.0,59,0.00,,,-99.99,open2300 version1.11,2013-09-17 22:10:00,
2013-09-17 19:10:00,60.6,48.0,30.22,NNE,33,0.0,0.0,63,0.00,,,-99.99,open2300 version1.11,2013-09-17 23:10:00,
2013-09-17 19:15:00,60.4,47.8,30.22,North,0,0.0,0.0,63,0.00,,,-99.99,open2300 version1.11,2013-09-17 23:15:00,
2013-09-17 19:30:00,59.7,47.5,30.23,North,0,0.0,0.0,64,0.00,,,-99.99,open2300 version1.11,2013-09-17 23:30:00,
2013-09-17 19:40:00,59.4,47.6,30.22,NE,45,0.0,0.0,65,0.00,,,-99.99,open2300 version1.11,2013-09-17 23:40:00,
2013-09-17 19:55:00,58.5,47.5,30.22,North,0,0.0,0.0,67,0.00,,,-99.99,open2300 version1.11,2013-09-17 23:55:00,
2013-09-17 20:20:00,56.7,46.6,30.21,NNW,343,0.0,0.0,69,0.00,,,-99.99,open2300 version1.11,2013-09-18 00:20:00,
2013-09-17 21:10:00,55.2,46.0,30.21,North,358,0.0,0.0,71,0.00,,,-99.99,open2300 version1.11,2013-09-18 01:10:00,
2013-09-17 21:30:00,54.7,45.5,30.21,North,0,0.0,0.0,71,0.00,,,-99.99,open2300 version1.11,2013-09-18 01:30:00,
2013-09-17 22:10:00,53.4,44.6,30.20,North,6,0.0,0.0,72,0.00,,,-99.99,open2300 version1.11,2013-09-18 02:10:00,
2013-09-17 22:15:00,53.2,44.8,30.20,North,0,0.0,0.0,73,0.00,,,-99.99,open2300 version1.11,2013-09-18 02:15:00,
2013-09-17 22:30:00,52.3,44.3,30.20,North,0,0.0,0.0,74,0.00,,,-99.99,open2300 version1.11,2013-09-18 02:30:00,
2013-09-17 22:40:00,51.8,44.1,30.20,North,0,0.0,0.0,75,0.00,,,-99.99,open2300 version1.11,2013-09-18 02:40:00,
2013-09-17 23:35:00,49.6,43.4,30.20,North,0,0.0,0.0,79,0.00,,,-99.99,open2300 version1.11,2013-09-18 03:35:00,